Nearby METAR Reports

 

K27K - Georgetown, Kentucky, USA
Distance from station: NE 1mi, 3km
Updated: Mon, 14-Oct-2019 3:35am EDT
Clear
Clear
 Wind from SW
Wind: SW 5 mph , 7 km/h
Temperature: 46°F , 8°C
Wind Chill: 44°F , 7°C
Dew Point: 36°F , 2°C
Humidity: 66%
Barometer: 30.02 inHg , 1016.6 hPa
Clouds: Clear
Visibility: 10 miles , 16 km
2019/10/14 07:35 K27K 140735Z AUTO 23004KT 10SM CLR 08/02 A3002 RMK AO1
KLEX - Lexington, Kentucky, USA
Distance from station: SE 25mi, 38km
Updated: Mon, 14-Oct-2019 2:54am EDT
Clear
Clear
 Wind from SSW
Wind: SSW 8 mph , 13 km/h
Temperature: 50°F , 10°C
Wind Chill: 47°F , 8°C
Dew Point: 36°F , 2°C
Humidity: 58%
Barometer: 30.03 inHg , 1016.9 hPa
Clouds: Clear
Visibility: 10 miles , 16 km
2019/10/14 06:54 KLEX 140654Z 21007KT 10SM CLR 10/02 A3003 RMK AO2 SLP164 T01000022
 
KFFT - Frankfort, Kentucky, USA
Distance from station: WNW 24mi, 38km
Updated: Mon, 14-Oct-2019 2:53am EDT
Clear
Clear
 Wind from SW
Wind: SW 7 mph , 11 km/h
Temperature: 46°F , 8°C
Wind Chill: 42°F , 6°C
Dew Point: 37°F , 3°C
Humidity: 71%
Barometer: 30.01 inHg , 1016.3 hPa
Clouds: Clear
Visibility: 10 miles , 16 km
2019/10/14 06:53 KFFT 140653Z AUTO 22006KT 10SM CLR 08/03 A3001 RMK AO2 SLP160 T00780033
KIOB - Mount Sterling, Kentucky, USA
Distance from station: E 28mi, 46km
Updated: Mon, 14-Oct-2019 3:35am EDT
Clear
Clear
 Wind from SW
Wind: SW 5 mph , 7 km/h
Temperature: 46°F , 8°C
Wind Chill: 44°F , 7°C
Dew Point: 36°F , 2°C
Humidity: 66%
Barometer: 30.05 inHg , 1017.6 hPa
Clouds: Clear
Visibility: 10 miles , 16 km
2019/10/14 07:35 KIOB 140735Z AUTO 23004KT 10SM CLR 08/02 A3005 RMK AO2
 
KDVK - Danville, Kentucky, USA
Distance from station: SSW 35mi, 56km
Updated: Mon, 14-Oct-2019 3:35am EDT
Clear
Clear
 Wind from calm
Wind: Calm
Temperature: 41°F , 5°C
Dew Point: 37°F , 3°C
Humidity: 87%
Barometer: 30.06 inHg , 1017.9 hPa
Clouds: Clear
Visibility: 10 miles , 16 km
2019/10/14 07:35 KDVK 140735Z AUTO 00000KT 10SM CLR 05/03 A3006 RMK AO2
K6I2 - Springfield, Kentucky, USA
Distance from station: SW 49mi, 80km
Updated: Mon, 14-Oct-2019 3:20am EDT
Clear
Clear
 Wind from calm
Wind: Calm
Temperature: 48°F , 9°C
Dew Point: 39°F , 4°C
Humidity: 71%
Barometer: 30.05 inHg , 1017.6 hPa
Clouds: Clear
Visibility: 10 miles , 16 km
2019/10/14 07:20 K6I2 140720Z AUTO 00000KT 10SM CLR 09/04 A3005 RMK AO2
 
KSYM - Morehead, Kentucky, USA
Distance from station: ENE 51mi, 83km
Updated: Sun, 13-Oct-2019 6:40am EDT
NOT Current
Clear
Clear
 Wind from SSE
Wind: SSE 3 mph , 6 km/h
Temperature: 37°F , 3°C
Dew Point: 36°F , 2°C
Humidity: 93%
Barometer: 30.08 inHg , 1018.6 hPa
Clouds: Clear
Visibility: 10 miles , 16 km
2019/10/13 10:40 KSYM 131040Z AUTO 16003KT 10SM CLR 03/02 A3008 RMK AO2
KFGX - Flemingsburg, Kentucky, USA
Distance from station: NE 54mi, 87km
Updated: Mon, 14-Oct-2019 3:35am EDT
Clear
Clear
 Wind from SW
Wind: SW 7 mph , 11 km/h
Temperature: 48°F , 9°C
Wind Chill: 45°F , 7°C
Dew Point: 37°F , 3°C
Humidity: 66%
Barometer: 30.02 inHg , 1016.6 hPa
Clouds: Clear
Visibility: 10 miles , 16 km
2019/10/14 07:35 KFGX 140735Z AUTO 23006KT 10SM CLR 09/03 A3002 RMK AO2 T00870030
 
KLOU - Louisville/Bowmn, Kentucky, USA
Distance from station: W 64mi, 104km
Updated: Mon, 14-Oct-2019 2:53am EDT
Clear
Clear
 Wind from calm
Wind: Calm
Temperature: 46°F , 8°C
Dew Point: 39°F , 4°C
Humidity: 76%
Barometer: 30.02 inHg , 1016.6 hPa
Clouds: Clear
Visibility: 10 miles , 16 km
2019/10/14 06:53 KLOU 140653Z AUTO 00000KT 10SM CLR 08/04 A3002 RMK AO2 SLP163 T00830039
KSDF - Louisville, Kentucky, USA
Distance from station: W 68mi, 109km
Updated: Mon, 14-Oct-2019 2:56am EDT
Clear
Clear
 Wind from SW
Wind: SW 5 mph , 7 km/h
Temperature: 54°F , 12°C
Dew Point: 37°F , 3°C
Humidity: 54%
Barometer: 30.02 inHg , 1016.6 hPa
Clouds: Clear
Visibility: 10 miles , 16 km
2019/10/14 06:56 KSDF 140656Z 22004KT 10SM CLR 12/03 A3002 RMK AO2 SLP163 T01220028
 
KSME - Somerset, Kentucky, USA
Distance from station: S 69mi, 111km
Updated: Mon, 14-Oct-2019 3:35am EDT
Clear
Clear
 Wind from calm
Wind: Calm
Temperature: 37°F , 3°C
Dew Point: 37°F , 3°C
Humidity: 100%
Barometer: 30.08 inHg , 1018.6 hPa
Clouds: Clear
Visibility: 10 miles , 16 km
2019/10/14 07:35 KSME 140735Z AUTO 00000KT 10SM CLR 03/03 A3008 RMK AO2
KCVG - Covington, Kentucky, USA
Distance from station: N 70mi, 113km
Updated: Mon, 14-Oct-2019 2:52am EDT
Clear
Clear
 Wind from SSW
Wind: SSW 7 mph , 11 km/h
Temperature: 46°F , 8°C
Wind Chill: 42°F , 6°C
Dew Point: 37°F , 3°C
Humidity: 71%
Barometer: 29.98 inHg , 1015.2 hPa
Clouds: Clear
Visibility: 10 miles , 16 km
2019/10/14 06:52 KCVG 140652Z 20006KT 10SM CLR 08/03 A2998 RMK AO2 SLP149 T00780028
 
KLOZ - London, Kentucky, USA
Distance from station: SSE 70mi, 113km
Updated: Mon, 14-Oct-2019 2:53am EDT
Clear
Clear
 Wind from calm
Wind: Calm
Temperature: 43°F , 6°C
Dew Point: 39°F , 4°C
Humidity: 87%
Barometer: 30.06 inHg , 1017.9 hPa
Clouds: Clear
Visibility: 10 miles , 16 km
2019/10/14 06:53 KLOZ 140653Z AUTO 00000KT 10SM CLR 06/04 A3006 RMK AO2 SLP178 T00560044
KJKL - Noctor/Jackson, Kentucky, USA
Distance from station: ESE 72mi, 115km
Updated: Mon, 14-Oct-2019 2:53am EDT
Clear
Clear
 Wind from SSW
Wind: SSW 5 mph , 7 km/h
Temperature: 50°F , 10°C
Wind Chill: 48°F , 9°C
Dew Point: 37°F , 3°C
Humidity: 62%
Barometer: 30.05 inHg , 1017.6 hPa
Clouds: Clear
Visibility: 10 miles , 16 km
2019/10/14 06:53 KJKL 140653Z AUTO 21004KT 10SM CLR 10/03 A3005 RMK AO2 SLP168 T01000033
 
KIMS - Madison, Indiana, USA
Distance from station: NW 72mi, 116km
Updated: Mon, 14-Oct-2019 3:36am EDT
Clear
Clear
 Wind from SSW
Wind: SSW 3 mph , 6 km/h
Temperature: 46°F , 8°C
Dew Point: 39°F , 4°C
Humidity: 76%
Barometer: 30.02 inHg , 1016.6 hPa
Clouds: Clear
Visibility: 10 miles , 16 km
2019/10/14 07:36 KIMS 140736Z AUTO 21003KT 10SM CLR 08/04 A3002 RMK AO1
KLUK - Cincinnat/Lunken, Ohio, USA
Distance from station: N 73mi, 118km
Updated: Mon, 14-Oct-2019 2:53am EDT
Clear
Clear
 Wind from SSW
Wind: SSW 8 mph , 13 km/h
Temperature: 46°F , 8°C
Wind Chill: 42°F , 6°C
Dew Point: 39°F , 4°C
Humidity: 76%
Barometer: 30.00 inHg , 1015.9 hPa
Clouds: Clear
Visibility: 10 miles , 16 km
2019/10/14 06:53 KLUK 140653Z AUTO 21007KT 10SM CLR 08/04 A3000 RMK AO2 SLP157 T00830044
 
KI69 - Batavia, Ohio, USA
Distance from station: NNE 74mi, 119km
Updated: Mon, 14-Oct-2019 3:37am EDT
Clear
Clear
 Wind from calm
Wind: Calm
Temperature: 46°F , 8°C
Dew Point: 39°F , 4°C
Humidity: 76%
Barometer: 30.00 inHg , 1015.9 hPa
Clouds: Clear
Visibility: 10 miles , 16 km
2019/10/14 07:37 KI69 140737Z AUTO 00000KT 10SM CLR 08/04 A3000 RMK AO2 T00830037